sensor_id;sensor_type;location;lat;lon;timestamp;P1;durP1;ratioP1;P2;durP2;ratioP2
40044;SDS011;25735;48.122;11.422;2022-12-18T00:00:40;37.13;;;19.70;;
40044;SDS011;25735;48.122;11.422;2022-12-18T00:03:06;34.28;;;18.08;;
40044;SDS011;25735;48.122;11.422;2022-12-18T00:05:32;36.60;;;17.92;;
40044;SDS011;25735;48.122;11.422;2022-12-18T00:07:57;36.00;;;19.33;;
40044;SDS011;25735;48.122;11.422;2022-12-18T00:10:22;42.80;;;20.73;;
40044;SDS011;25735;48.122;11.422;2022-12-18T00:12:48;43.30;;;22.35;;
40044;SDS011;25735;48.122;11.422;2022-12-18T00:15:13;39.10;;;20.52;;
40044;SDS011;25735;48.122;11.422;2022-12-18T00:17:38;41.85;;;20.23;;
40044;SDS011;25735;48.122;11.422;2022-12-18T00:20:04;39.00;;;20.20;;
40044;SDS011;25735;48.122;11.422;2022-12-18T00:22:29;44.42;;;22.25;;
40044;SDS011;25735;48.122;11.422;2022-12-18T00:24:54;47.88;;;21.40;;
40044;SDS011;25735;48.122;11.422;2022-12-18T00:27:20;41.42;;;19.33;;
40044;SDS011;25735;48.122;11.422;2022-12-18T00:29:45;41.75;;;20.92;;
40044;SDS011;25735;48.122;11.422;2022-12-18T00:32:10;38.47;;;19.42;;
40044;SDS011;25735;48.122;11.422;2022-12-18T00:34:35;38.65;;;18.90;;
40044;SDS011;25735;48.122;11.422;2022-12-18T00:37:01;40.97;;;19.38;;
40044;SDS011;25735;48.122;11.422;2022-12-18T00:39:26;43.13;;;20.63;;
40044;SDS011;25735;48.122;11.422;2022-12-18T00:41:51;44.83;;;21.55;;
40044;SDS011;25735;48.122;11.422;2022-12-18T00:44:35;43.47;;;19.98;;
40044;SDS011;25735;48.122;11.422;2022-12-18T00:47:00;42.72;;;19.63;;
40044;SDS011;25735;48.122;11.422;2022-12-18T00:49:25;42.20;;;19.10;;
40044;SDS011;25735;48.122;11.422;2022-12-18T00:51:50;43.85;;;20.58;;
40044;SDS011;25735;48.122;11.422;2022-12-18T00:54:16;40.95;;;19.27;;
40044;SDS011;25735;48.122;11.422;2022-12-18T00:56:42;45.83;;;19.58;;
40044;SDS011;25735;48.122;11.422;2022-12-18T00:59:07;46.08;;;20.10;;
40044;SDS011;25735;48.122;11.422;2022-12-18T01:01:33;37.85;;;18.73;;
40044;SDS011;25735;48.122;11.422;2022-12-18T01:03:59;42.20;;;20.42;;
40044;SDS011;25735;48.122;11.422;2022-12-18T01:06:25;40.72;;;19.77;;
40044;SDS011;25735;48.122;11.422;2022-12-18T01:08:51;40.92;;;19.23;;
40044;SDS011;25735;48.122;11.422;2022-12-18T01:11:17;38.80;;;19.17;;
40044;SDS011;25735;48.122;11.422;2022-12-18T01:13:44;43.03;;;19.63;;
40044;SDS011;25735;48.122;11.422;2022-12-18T01:16:11;44.45;;;20.05;;
40044;SDS011;25735;48.122;11.422;2022-12-18T01:18:37;40.22;;;18.27;;
40044;SDS011;25735;48.122;11.422;2022-12-18T01:21:06;41.92;;;20.15;;
40044;SDS011;25735;48.122;11.422;2022-12-18T01:23:36;38.85;;;19.30;;
40044;SDS011;25735;48.122;11.422;2022-12-18T01:26:07;41.67;;;20.45;;
40044;SDS011;25735;48.122;11.422;2022-12-18T01:28:33;38.57;;;18.07;;
40044;SDS011;25735;48.122;11.422;2022-12-18T01:31:08;33.38;;;17.48;;
40044;SDS011;25735;48.122;11.422;2022-12-18T01:33:35;38.47;;;18.45;;
40044;SDS011;25735;48.122;11.422;2022-12-18T01:36:00;38.83;;;18.58;;
40044;SDS011;25735;48.122;11.422;2022-12-18T01:38:25;38.67;;;18.70;;
40044;SDS011;25735;48.122;11.422;2022-12-18T01:40:56;41.85;;;17.95;;
40044;SDS011;25735;48.122;11.422;2022-12-18T01:43:40;38.90;;;19.55;;
40044;SDS011;25735;48.122;11.422;2022-12-18T01:46:08;45.50;;;20.33;;
40044;SDS011;25735;48.122;11.422;2022-12-18T01:48:34;39.40;;;17.98;;
40044;SDS011;25735;48.122;11.422;2022-12-18T01:50:59;32.63;;;17.17;;
40044;SDS011;25735;48.122;11.422;2022-12-18T01:53:25;42.75;;;19.15;;
40044;SDS011;25735;48.122;11.422;2022-12-18T01:55:56;35.42;;;17.63;;
40044;SDS011;25735;48.122;11.422;2022-12-18T01:58:38;40.90;;;19.40;;
40044;SDS011;25735;48.122;11.422;2022-12-18T02:01:24;37.33;;;17.70;;
40044;SDS011;25735;48.122;11.422;2022-12-18T02:03:50;36.40;;;18.08;;
40044;SDS011;25735;48.122;11.422;2022-12-18T02:06:20;40.13;;;20.17;;
40044;SDS011;25735;48.122;11.422;2022-12-18T02:11:43;41.42;;;18.13;;
40044;SDS011;25735;48.122;11.422;2022-12-18T02:24:42;45.00;;;17.98;;
40044;SDS011;25735;48.122;11.422;2022-12-18T02:27:20;41.92;;;19.75;;
40044;SDS011;25735;48.122;11.422;2022-12-18T02:29:48;37.08;;;18.05;;
40044;SDS011;25735;48.122;11.422;2022-12-18T02:32:20;34.85;;;16.98;;
40044;SDS011;25735;48.122;11.422;2022-12-18T02:34:49;37.95;;;18.77;;
40044;SDS011;25735;48.122;11.422;2022-12-18T02:37:16;37.05;;;17.50;;
40044;SDS011;25735;48.122;11.422;2022-12-18T02:39:44;33.65;;;16.98;;
40044;SDS011;25735;48.122;11.422;2022-12-18T02:42:12;38.72;;;16.77;;
40044;SDS011;25735;48.122;11.422;2022-12-18T02:44:41;39.55;;;18.90;;
40044;SDS011;25735;48.122;11.422;2022-12-18T02:47:09;41.65;;;20.52;;
40044;SDS011;25735;48.122;11.422;2022-12-18T02:55:18;37.80;;;17.27;;
40044;SDS011;25735;48.122;11.422;2022-12-18T02:57:53;45.33;;;22.10;;
40044;SDS011;25735;48.122;11.422;2022-12-18T03:00:28;40.45;;;18.50;;
40044;SDS011;25735;48.122;11.422;2022-12-18T03:03:02;36.00;;;19.48;;
40044;SDS011;25735;48.122;11.422;2022-12-18T03:05:50;39.63;;;18.45;;
40044;SDS011;25735;48.122;11.422;2022-12-18T03:08:21;40.60;;;19.25;;
40044;SDS011;25735;48.122;11.422;2022-12-18T03:10:54;48.65;;;22.48;;
40044;SDS011;25735;48.122;11.422;2022-12-18T03:13:26;42.88;;;19.50;;
40044;SDS011;25735;48.122;11.422;2022-12-18T03:15:55;39.10;;;18.63;;
40044;SDS011;25735;48.122;11.422;2022-12-18T03:18:24;43.60;;;19.10;;
40044;SDS011;25735;48.122;11.422;2022-12-18T03:20:54;41.97;;;21.27;;
40044;SDS011;25735;48.122;11.422;2022-12-18T03:23:24;43.88;;;18.95;;
40044;SDS011;25735;48.122;11.422;2022-12-18T03:25:56;47.60;;;21.90;;
40044;SDS011;25735;48.122;11.422;2022-12-18T03:28:24;43.63;;;20.85;;
40044;SDS011;25735;48.122;11.422;2022-12-18T03:30:54;41.70;;;19.88;;
40044;SDS011;25735;48.122;11.422;2022-12-18T03:33:25;36.20;;;16.77;;
40044;SDS011;25735;48.122;11.422;2022-12-18T03:36:02;40.17;;;19.00;;
40044;SDS011;25735;48.122;11.422;2022-12-18T03:38:28;44.88;;;20.75;;
40044;SDS011;25735;48.122;11.422;2022-12-18T03:41:01;44.75;;;21.85;;
40044;SDS011;25735;48.122;11.422;2022-12-18T03:46:08;44.88;;;22.33;;
40044;SDS011;25735;48.122;11.422;2022-12-18T03:48:51;40.33;;;20.13;;
40044;SDS011;25735;48.122;11.422;2022-12-18T03:51:29;54.45;;;23.80;;
40044;SDS011;25735;48.122;11.422;2022-12-18T03:54:05;47.40;;;22.58;;
40044;SDS011;25735;48.122;11.422;2022-12-18T03:56:35;47.15;;;19.67;;
40044;SDS011;25735;48.122;11.422;2022-12-18T03:59:04;53.30;;;22.17;;
40044;SDS011;25735;48.122;11.422;2022-12-18T04:01:32;47.08;;;22.95;;
40044;SDS011;25735;48.122;11.422;2022-12-18T04:04:00;48.55;;;22.63;;
40044;SDS011;25735;48.122;11.422;2022-12-18T04:06:27;51.15;;;23.45;;
40044;SDS011;25735;48.122;11.422;2022-12-18T04:08:54;46.28;;;20.73;;
40044;SDS011;25735;48.122;11.422;2022-12-18T04:11:19;53.15;;;23.20;;
40044;SDS011;25735;48.122;11.422;2022-12-18T04:13:45;51.00;;;21.63;;
40044;SDS011;25735;48.122;11.422;2022-12-18T04:16:10;51.35;;;22.17;;
40044;SDS011;25735;48.122;11.422;2022-12-18T04:18:35;46.10;;;20.10;;
40044;SDS011;25735;48.122;11.422;2022-12-18T04:21:01;47.03;;;21.92;;
40044;SDS011;25735;48.122;11.422;2022-12-18T04:23:27;50.80;;;22.33;;
40044;SDS011;25735;48.122;11.422;2022-12-18T04:25:53;46.58;;;21.73;;
40044;SDS011;25735;48.122;11.422;2022-12-18T04:28:18;46.00;;;19.90;;
40044;SDS011;25735;48.122;11.422;2022-12-18T04:30:44;49.03;;;21.13;;
40044;SDS011;25735;48.122;11.422;2022-12-18T04:33:10;43.42;;;20.30;;
40044;SDS011;25735;48.122;11.422;2022-12-18T04:35:36;42.28;;;20.52;;
40044;SDS011;25735;48.122;11.422;2022-12-18T04:38:01;46.72;;;21.48;;
40044;SDS011;25735;48.122;11.422;2022-12-18T04:40:26;41.45;;;19.98;;
40044;SDS011;25735;48.122;11.422;2022-12-18T04:42:52;45.33;;;18.52;;
40044;SDS011;25735;48.122;11.422;2022-12-18T04:45:17;39.33;;;18.63;;
40044;SDS011;25735;48.122;11.422;2022-12-18T04:47:42;40.75;;;18.58;;
40044;SDS011;25735;48.122;11.422;2022-12-18T04:50:07;46.65;;;20.27;;
40044;SDS011;25735;48.122;11.422;2022-12-18T04:52:33;49.88;;;22.58;;
40044;SDS011;25735;48.122;11.422;2022-12-18T04:54:58;42.65;;;20.77;;
40044;SDS011;25735;48.122;11.422;2022-12-18T04:57:23;46.85;;;21.17;;
40044;SDS011;25735;48.122;11.422;2022-12-18T04:59:49;45.58;;;20.30;;
40044;SDS011;25735;48.122;11.422;2022-12-18T05:02:14;49.63;;;21.42;;
40044;SDS011;25735;48.122;11.422;2022-12-18T05:04:39;46.88;;;20.80;;
40044;SDS011;25735;48.122;11.422;2022-12-18T05:07:04;45.15;;;21.02;;
40044;SDS011;25735;48.122;11.422;2022-12-18T05:09:30;43.97;;;21.38;;
40044;SDS011;25735;48.122;11.422;2022-12-18T05:11:55;49.22;;;23.73;;
40044;SDS011;25735;48.122;11.422;2022-12-18T05:14:20;49.00;;;21.95;;
40044;SDS011;25735;48.122;11.422;2022-12-18T05:16:46;45.65;;;19.42;;
40044;SDS011;25735;48.122;11.422;2022-12-18T05:19:11;50.42;;;21.55;;
40044;SDS011;25735;48.122;11.422;2022-12-18T05:21:36;45.35;;;20.95;;
40044;SDS011;25735;48.122;11.422;2022-12-18T05:24:01;43.00;;;21.23;;
40044;SDS011;25735;48.122;11.422;2022-12-18T05:26:27;44.38;;;20.45;;
40044;SDS011;25735;48.122;11.422;2022-12-18T05:28:52;42.08;;;19.52;;
40044;SDS011;25735;48.122;11.422;2022-12-18T05:31:17;40.50;;;19.23;;
40044;SDS011;25735;48.122;11.422;2022-12-18T05:33:43;45.75;;;20.10;;
40044;SDS011;25735;48.122;11.422;2022-12-18T05:36:08;45.83;;;21.48;;
40044;SDS011;25735;48.122;11.422;2022-12-18T05:38:35;47.40;;;20.83;;
40044;SDS011;25735;48.122;11.422;2022-12-18T05:41:02;44.63;;;20.92;;
40044;SDS011;25735;48.122;11.422;2022-12-18T05:43:28;45.05;;;19.38;;
40044;SDS011;25735;48.122;11.422;2022-12-18T05:45:54;42.85;;;20.40;;
40044;SDS011;25735;48.122;11.422;2022-12-18T05:48:19;46.15;;;21.88;;
40044;SDS011;25735;48.122;11.422;2022-12-18T05:50:46;43.25;;;18.30;;
40044;SDS011;25735;48.122;11.422;2022-12-18T05:53:12;39.22;;;18.05;;
40044;SDS011;25735;48.122;11.422;2022-12-18T05:55:39;40.35;;;20.20;;
40044;SDS011;25735;48.122;11.422;2022-12-18T05:58:06;38.97;;;18.42;;
40044;SDS011;25735;48.122;11.422;2022-12-18T06:00:34;42.47;;;20.35;;
40044;SDS011;25735;48.122;11.422;2022-12-18T06:03:04;39.42;;;15.95;;
40044;SDS011;25735;48.122;11.422;2022-12-18T06:05:34;44.03;;;20.80;;
40044;SDS011;25735;48.122;11.422;2022-12-18T06:08:00;47.08;;;21.30;;
40044;SDS011;25735;48.122;11.422;2022-12-18T06:10:25;41.38;;;21.60;;
40044;SDS011;25735;48.122;11.422;2022-12-18T06:12:51;39.90;;;19.33;;
40044;SDS011;25735;48.122;11.422;2022-12-18T06:15:16;43.22;;;19.13;;
40044;SDS011;25735;48.122;11.422;2022-12-18T06:17:41;42.85;;;19.08;;
40044;SDS011;25735;48.122;11.422;2022-12-18T06:20:06;42.67;;;19.75;;
40044;SDS011;25735;48.122;11.422;2022-12-18T06:22:32;40.20;;;19.58;;
40044;SDS011;25735;48.122;11.422;2022-12-18T06:24:58;38.78;;;19.10;;
40044;SDS011;25735;48.122;11.422;2022-12-18T06:27:24;38.33;;;17.73;;
40044;SDS011;25735;48.122;11.422;2022-12-18T06:29:49;39.08;;;19.00;;
40044;SDS011;25735;48.122;11.422;2022-12-18T06:32:14;39.78;;;18.85;;
40044;SDS011;25735;48.122;11.422;2022-12-18T06:34:40;38.53;;;17.45;;
40044;SDS011;25735;48.122;11.422;2022-12-18T06:37:05;37.08;;;16.98;;
40044;SDS011;25735;48.122;11.422;2022-12-18T06:39:30;41.50;;;19.33;;
40044;SDS011;25735;48.122;11.422;2022-12-18T06:41:56;34.75;;;16.63;;
40044;SDS011;25735;48.122;11.422;2022-12-18T06:44:21;38.20;;;18.60;;
40044;SDS011;25735;48.122;11.422;2022-12-18T06:46:46;40.50;;;17.73;;
40044;SDS011;25735;48.122;11.422;2022-12-18T06:49:12;36.40;;;17.98;;
40044;SDS011;25735;48.122;11.422;2022-12-18T06:51:37;39.30;;;19.08;;
40044;SDS011;25735;48.122;11.422;2022-12-18T06:54:03;44.00;;;18.88;;
40044;SDS011;25735;48.122;11.422;2022-12-18T06:56:34;38.53;;;19.17;;
40044;SDS011;25735;48.122;11.422;2022-12-18T06:59:00;34.67;;;17.73;;
40044;SDS011;25735;48.122;11.422;2022-12-18T07:01:25;34.50;;;17.38;;
40044;SDS011;25735;48.122;11.422;2022-12-18T07:03:51;38.67;;;18.88;;
40044;SDS011;25735;48.122;11.422;2022-12-18T07:06:22;36.05;;;17.80;;
40044;SDS011;25735;48.122;11.422;2022-12-18T07:08:49;38.97;;;17.77;;
40044;SDS011;25735;48.122;11.422;2022-12-18T07:11:16;37.47;;;18.73;;
40044;SDS011;25735;48.122;11.422;2022-12-18T07:13:42;38.13;;;18.42;;
40044;SDS011;25735;48.122;11.422;2022-12-18T07:16:09;34.97;;;17.90;;
40044;SDS011;25735;48.122;11.422;2022-12-18T07:18:36;41.45;;;18.75;;
40044;SDS011;25735;48.122;11.422;2022-12-18T07:21:03;30.92;;;15.80;;
40044;SDS011;25735;48.122;11.422;2022-12-18T07:23:33;36.95;;;18.08;;
40044;SDS011;25735;48.122;11.422;2022-12-18T07:26:03;38.25;;;18.15;;
40044;SDS011;25735;48.122;11.422;2022-12-18T07:28:29;38.53;;;18.35;;
40044;SDS011;25735;48.122;11.422;2022-12-18T07:30:54;36.25;;;17.63;;
40044;SDS011;25735;48.122;11.422;2022-12-18T07:33:19;34.17;;;17.52;;
40044;SDS011;25735;48.122;11.422;2022-12-18T07:35:45;37.55;;;18.02;;
40044;SDS011;25735;48.122;11.422;2022-12-18T07:38:10;41.17;;;20.15;;
40044;SDS011;25735;48.122;11.422;2022-12-18T07:40:35;38.75;;;20.08;;
40044;SDS011;25735;48.122;11.422;2022-12-18T07:43:00;35.08;;;17.23;;
40044;SDS011;25735;48.122;11.422;2022-12-18T07:45:26;33.97;;;16.35;;
40044;SDS011;25735;48.122;11.422;2022-12-18T07:47:51;35.20;;;17.92;;
40044;SDS011;25735;48.122;11.422;2022-12-18T07:50:17;38.80;;;17.92;;
40044;SDS011;25735;48.122;11.422;2022-12-18T07:52:42;41.97;;;19.73;;
40044;SDS011;25735;48.122;11.422;2022-12-18T07:55:07;42.40;;;18.52;;
40044;SDS011;25735;48.122;11.422;2022-12-18T07:57:33;42.90;;;19.40;;
40044;SDS011;25735;48.122;11.422;2022-12-18T07:59:59;42.78;;;20.60;;
40044;SDS011;25735;48.122;11.422;2022-12-18T08:02:24;34.90;;;16.77;;
40044;SDS011;25735;48.122;11.422;2022-12-18T08:04:49;37.75;;;17.58;;
40044;SDS011;25735;48.122;11.422;2022-12-18T08:07:14;36.50;;;17.73;;
40044;SDS011;25735;48.122;11.422;2022-12-18T08:09:40;38.45;;;18.35;;
40044;SDS011;25735;48.122;11.422;2022-12-18T08:12:05;38.90;;;18.55;;
40044;SDS011;25735;48.122;11.422;2022-12-18T08:14:30;35.35;;;17.10;;
40044;SDS011;25735;48.122;11.422;2022-12-18T08:16:56;47.08;;;21.17;;
40044;SDS011;25735;48.122;11.422;2022-12-18T08:19:21;39.67;;;17.88;;
40044;SDS011;25735;48.122;11.422;2022-12-18T08:21:46;38.65;;;21.52;;
40044;SDS011;25735;48.122;11.422;2022-12-18T08:24:11;37.92;;;17.50;;
40044;SDS011;25735;48.122;11.422;2022-12-18T08:26:37;40.45;;;20.35;;
40044;SDS011;25735;48.122;11.422;2022-12-18T08:29:02;37.92;;;18.77;;
40044;SDS011;25735;48.122;11.422;2022-12-18T08:31:28;36.75;;;19.00;;
40044;SDS011;25735;48.122;11.422;2022-12-18T08:33:55;36.83;;;16.90;;
40044;SDS011;25735;48.122;11.422;2022-12-18T08:36:21;38.35;;;17.60;;
40044;SDS011;25735;48.122;11.422;2022-12-18T08:38:47;33.35;;;16.08;;
40044;SDS011;25735;48.122;11.422;2022-12-18T08:41:13;34.33;;;16.13;;
40044;SDS011;25735;48.122;11.422;2022-12-18T08:43:39;37.05;;;17.92;;
40044;SDS011;25735;48.122;11.422;2022-12-18T08:46:24;38.78;;;17.90;;
40044;SDS011;25735;48.122;11.422;2022-12-18T08:48:51;41.03;;;19.52;;
40044;SDS011;25735;48.122;11.422;2022-12-18T08:51:17;34.63;;;18.00;;
40044;SDS011;25735;48.122;11.422;2022-12-18T08:53:43;39.72;;;17.00;;
40044;SDS011;25735;48.122;11.422;2022-12-18T08:56:12;35.58;;;18.90;;
40044;SDS011;25735;48.122;11.422;2022-12-18T08:58:38;33.47;;;17.05;;
40044;SDS011;25735;48.122;11.422;2022-12-18T09:01:04;39.72;;;19.13;;
40044;SDS011;25735;48.122;11.422;2022-12-18T09:03:31;38.20;;;18.45;;
40044;SDS011;25735;48.122;11.422;2022-12-18T09:05:57;37.67;;;17.08;;
40044;SDS011;25735;48.122;11.422;2022-12-18T09:08:22;39.90;;;17.60;;
40044;SDS011;25735;48.122;11.422;2022-12-18T09:10:49;35.17;;;16.52;;
40044;SDS011;25735;48.122;11.422;2022-12-18T09:13:15;35.15;;;17.92;;
40044;SDS011;25735;48.122;11.422;2022-12-18T09:15:42;37.53;;;17.33;;
40044;SDS011;25735;48.122;11.422;2022-12-18T09:18:12;37.58;;;17.98;;
40044;SDS011;25735;48.122;11.422;2022-12-18T09:20:38;34.47;;;16.73;;
40044;SDS011;25735;48.122;11.422;2022-12-18T09:23:04;41.78;;;21.10;;
40044;SDS011;25735;48.122;11.422;2022-12-18T09:25:30;35.70;;;16.52;;
40044;SDS011;25735;48.122;11.422;2022-12-18T09:28:00;34.00;;;17.33;;
40044;SDS011;25735;48.122;11.422;2022-12-18T09:30:30;41.65;;;18.23;;
40044;SDS011;25735;48.122;11.422;2022-12-18T09:32:58;34.55;;;16.60;;
40044;SDS011;25735;48.122;11.422;2022-12-18T09:35:23;31.20;;;15.32;;
40044;SDS011;25735;48.122;11.422;2022-12-18T09:37:48;34.63;;;16.73;;
40044;SDS011;25735;48.122;11.422;2022-12-18T09:40:14;38.47;;;18.90;;
40044;SDS011;25735;48.122;11.422;2022-12-18T09:42:43;37.35;;;17.05;;
40044;SDS011;25735;48.122;11.422;2022-12-18T09:45:13;38.83;;;17.75;;
40044;SDS011;25735;48.122;11.422;2022-12-18T09:47:40;35.63;;;17.52;;
40044;SDS011;25735;48.122;11.422;2022-12-18T09:50:24;36.05;;;18.08;;
40044;SDS011;25735;48.122;11.422;2022-12-18T09:52:54;33.50;;;16.50;;
40044;SDS011;25735;48.122;11.422;2022-12-18T09:58:05;35.15;;;17.42;;
40044;SDS011;25735;48.122;11.422;2022-12-18T10:00:38;38.35;;;18.05;;
40044;SDS011;25735;48.122;11.422;2022-12-18T10:03:08;35.42;;;17.08;;
40044;SDS011;25735;48.122;11.422;2022-12-18T10:05:37;38.60;;;17.92;;
40044;SDS011;25735;48.122;11.422;2022-12-18T10:08:25;38.63;;;17.73;;
40044;SDS011;25735;48.122;11.422;2022-12-18T10:10:53;34.40;;;17.38;;
40044;SDS011;25735;48.122;11.422;2022-12-18T10:13:46;33.60;;;16.77;;
40044;SDS011;25735;48.122;11.422;2022-12-18T10:21:53;41.60;;;18.33;;
40044;SDS011;25735;48.122;11.422;2022-12-18T10:27:24;37.92;;;19.30;;
40044;SDS011;25735;48.122;11.422;2022-12-18T10:29:51;33.53;;;16.30;;
40044;SDS011;25735;48.122;11.422;2022-12-18T10:32:35;31.55;;;16.38;;
40044;SDS011;25735;48.122;11.422;2022-12-18T10:35:00;36.00;;;16.27;;
40044;SDS011;25735;48.122;11.422;2022-12-18T10:37:26;41.35;;;16.20;;
40044;SDS011;25735;48.122;11.422;2022-12-18T10:42:36;32.50;;;17.08;;
40044;SDS011;25735;48.122;11.422;2022-12-18T10:45:03;35.15;;;16.20;;
40044;SDS011;25735;48.122;11.422;2022-12-18T10:47:33;35.70;;;18.00;;
40044;SDS011;25735;48.122;11.422;2022-12-18T10:49:58;36.03;;;17.60;;
40044;SDS011;25735;48.122;11.422;2022-12-18T10:52:25;36.35;;;15.85;;
40044;SDS011;25735;48.122;11.422;2022-12-18T10:54:55;32.15;;;17.23;;
40044;SDS011;25735;48.122;11.422;2022-12-18T10:57:34;35.40;;;17.42;;
40044;SDS011;25735;48.122;11.422;2022-12-18T11:02:52;34.38;;;18.45;;
40044;SDS011;25735;48.122;11.422;2022-12-18T11:07:53;34.10;;;14.93;;
40044;SDS011;25735;48.122;11.422;2022-12-18T11:10:40;31.38;;;16.27;;
40044;SDS011;25735;48.122;11.422;2022-12-18T11:13:12;38.17;;;18.50;;
40044;SDS011;25735;48.122;11.422;2022-12-18T11:15:43;39.13;;;16.48;;
40044;SDS011;25735;48.122;11.422;2022-12-18T11:18:16;32.28;;;15.55;;
40044;SDS011;25735;48.122;11.422;2022-12-18T11:20:50;37.70;;;17.30;;
40044;SDS011;25735;48.122;11.422;2022-12-18T11:23:17;30.17;;;15.98;;
40044;SDS011;25735;48.122;11.422;2022-12-18T11:25:56;29.48;;;15.27;;
40044;SDS011;25735;48.122;11.422;2022-12-18T11:28:27;34.50;;;17.10;;
40044;SDS011;25735;48.122;11.422;2022-12-18T11:31:17;32.10;;;15.23;;
40044;SDS011;25735;48.122;11.422;2022-12-18T11:36:22;30.42;;;15.30;;
40044;SDS011;25735;48.122;11.422;2022-12-18T11:38:48;36.28;;;17.00;;
40044;SDS011;25735;48.122;11.422;2022-12-18T11:41:27;32.08;;;17.83;;
40044;SDS011;25735;48.122;11.422;2022-12-18T11:44:22;31.92;;;16.02;;
40044;SDS011;25735;48.122;11.422;2022-12-18T11:46:55;32.42;;;16.25;;
40044;SDS011;25735;48.122;11.422;2022-12-18T11:49:26;35.85;;;16.00;;
40044;SDS011;25735;48.122;11.422;2022-12-18T11:54:58;27.70;;;14.63;;
40044;SDS011;25735;48.122;11.422;2022-12-18T11:57:30;33.13;;;16.08;;
40044;SDS011;25735;48.122;11.422;2022-12-18T12:00:12;35.28;;;16.42;;
40044;SDS011;25735;48.122;11.422;2022-12-18T12:05:16;34.92;;;15.32;;
40044;SDS011;25735;48.122;11.422;2022-12-18T12:13:03;33.33;;;15.25;;
40044;SDS011;25735;48.122;11.422;2022-12-18T12:19:01;29.17;;;15.88;;
40044;SDS011;25735;48.122;11.422;2022-12-18T12:21:35;29.80;;;15.52;;
40044;SDS011;25735;48.122;11.422;2022-12-18T12:37:50;34.88;;;18.58;;
40044;SDS011;25735;48.122;11.422;2022-12-18T12:40:26;30.77;;;16.33;;
40044;SDS011;25735;48.122;11.422;2022-12-18T12:42:56;31.67;;;16.30;;
40044;SDS011;25735;48.122;11.422;2022-12-18T12:45:47;32.08;;;16.58;;
40044;SDS011;25735;48.122;11.422;2022-12-18T12:48:49;34.10;;;15.63;;
40044;SDS011;25735;48.122;11.422;2022-12-18T12:51:24;31.60;;;15.40;;
40044;SDS011;25735;48.122;11.422;2022-12-18T12:53:53;33.95;;;16.83;;
40044;SDS011;25735;48.122;11.422;2022-12-18T12:56:21;32.72;;;16.80;;
40044;SDS011;25735;48.122;11.422;2022-12-18T13:01:43;31.02;;;16.25;;
40044;SDS011;25735;48.122;11.422;2022-12-18T13:04:27;27.88;;;13.82;;
40044;SDS011;25735;48.122;11.422;2022-12-18T13:07:04;30.65;;;15.65;;
40044;SDS011;25735;48.122;11.422;2022-12-18T13:09:30;31.33;;;15.32;;
40044;SDS011;25735;48.122;11.422;2022-12-18T13:12:01;29.45;;;15.07;;
40044;SDS011;25735;48.122;11.422;2022-12-18T13:14:46;49.85;;;26.25;;
40044;SDS011;25735;48.122;11.422;2022-12-18T13:23:34;35.38;;;18.73;;
40044;SDS011;25735;48.122;11.422;2022-12-18T13:25:46;30.20;;;15.18;;
40044;SDS011;25735;48.122;11.422;2022-12-18T13:28:14;31.48;;;15.90;;
40044;SDS011;25735;48.122;11.422;2022-12-18T13:30:49;38.40;;;21.17;;
40044;SDS011;25735;48.122;11.422;2022-12-18T13:38:23;37.53;;;17.02;;
40044;SDS011;25735;48.122;11.422;2022-12-18T13:41:01;33.65;;;17.63;;
40044;SDS011;25735;48.122;11.422;2022-12-18T13:48:29;32.13;;;16.02;;
40044;SDS011;25735;48.122;11.422;2022-12-18T13:53:26;33.53;;;16.70;;
40044;SDS011;25735;48.122;11.422;2022-12-18T13:55:57;34.20;;;17.00;;
40044;SDS011;25735;48.122;11.422;2022-12-18T13:58:23;32.75;;;16.77;;
40044;SDS011;25735;48.122;11.422;2022-12-18T14:00:48;32.25;;;16.60;;
40044;SDS011;25735;48.122;11.422;2022-12-18T14:03:21;29.33;;;15.20;;
40044;SDS011;25735;48.122;11.422;2022-12-18T14:05:54;32.75;;;16.63;;
40044;SDS011;25735;48.122;11.422;2022-12-18T14:08:23;32.53;;;15.93;;
40044;SDS011;25735;48.122;11.422;2022-12-18T14:10:51;34.60;;;16.75;;
40044;SDS011;25735;48.122;11.422;2022-12-18T14:13:19;28.95;;;15.27;;
40044;SDS011;25735;48.122;11.422;2022-12-18T14:15:49;33.35;;;17.23;;
40044;SDS011;25735;48.122;11.422;2022-12-18T14:18:22;31.65;;;18.27;;
40044;SDS011;25735;48.122;11.422;2022-12-18T14:21:26;33.05;;;17.20;;
40044;SDS011;25735;48.122;11.422;2022-12-18T14:24:03;29.55;;;16.20;;
40044;SDS011;25735;48.122;11.422;2022-12-18T14:26:38;32.80;;;16.75;;
40044;SDS011;25735;48.122;11.422;2022-12-18T14:31:46;30.42;;;16.48;;
40044;SDS011;25735;48.122;11.422;2022-12-18T14:34:30;31.40;;;16.38;;
40044;SDS011;25735;48.122;11.422;2022-12-18T14:36:55;29.35;;;15.07;;
40044;SDS011;25735;48.122;11.422;2022-12-18T14:39:21;30.90;;;16.10;;
40044;SDS011;25735;48.122;11.422;2022-12-18T14:41:48;32.20;;;15.48;;
40044;SDS011;25735;48.122;11.422;2022-12-18T14:44:14;29.88;;;16.13;;
40044;SDS011;25735;48.122;11.422;2022-12-18T14:46:40;32.40;;;15.50;;
40044;SDS011;25735;48.122;11.422;2022-12-18T14:49:19;33.00;;;16.73;;
40044;SDS011;25735;48.122;11.422;2022-12-18T14:51:47;28.30;;;14.85;;
40044;SDS011;25735;48.122;11.422;2022-12-18T14:54:15;28.85;;;15.48;;
40044;SDS011;25735;48.122;11.422;2022-12-18T14:56:44;39.28;;;16.85;;
40044;SDS011;25735;48.122;11.422;2022-12-18T14:59:30;30.17;;;15.98;;
40044;SDS011;25735;48.122;11.422;2022-12-18T15:01:58;30.27;;;16.27;;
40044;SDS011;25735;48.122;11.422;2022-12-18T15:04:31;30.02;;;15.18;;
40044;SDS011;25735;48.122;11.422;2022-12-18T15:15:00;31.42;;;17.17;;
40044;SDS011;25735;48.122;11.422;2022-12-18T15:17:26;34.05;;;16.20;;
40044;SDS011;25735;48.122;11.422;2022-12-18T15:19:53;34.95;;;16.60;;
40044;SDS011;25735;48.122;11.422;2022-12-18T15:22:34;31.95;;;15.82;;
40044;SDS011;25735;48.122;11.422;2022-12-18T15:25:01;36.25;;;16.27;;
40044;SDS011;25735;48.122;11.422;2022-12-18T15:27:31;29.75;;;14.95;;
40044;SDS011;25735;48.122;11.422;2022-12-18T15:32:34;28.35;;;14.38;;
40044;SDS011;25735;48.122;11.422;2022-12-18T15:35:14;36.45;;;17.35;;
40044;SDS011;25735;48.122;11.422;2022-12-18T15:37:40;36.75;;;18.20;;
40044;SDS011;25735;48.122;11.422;2022-12-18T15:40:05;33.13;;;16.38;;
40044;SDS011;25735;48.122;11.422;2022-12-18T15:42:32;33.30;;;17.15;;
40044;SDS011;25735;48.122;11.422;2022-12-18T15:45:23;32.53;;;16.50;;
40044;SDS011;25735;48.122;11.422;2022-12-18T15:47:49;38.83;;;17.45;;
40044;SDS011;25735;48.122;11.422;2022-12-18T15:50:14;40.85;;;17.98;;
40044;SDS011;25735;48.122;11.422;2022-12-18T15:52:40;36.10;;;17.80;;
40044;SDS011;25735;48.122;11.422;2022-12-18T15:55:15;31.25;;;16.52;;
40044;SDS011;25735;48.122;11.422;2022-12-18T15:58:01;34.45;;;16.42;;
40044;SDS011;25735;48.122;11.422;2022-12-18T16:00:27;33.28;;;16.13;;
40044;SDS011;25735;48.122;11.422;2022-12-18T16:02:52;42.58;;;18.17;;
40044;SDS011;25735;48.122;11.422;2022-12-18T16:05:18;39.58;;;19.02;;